sensor_id;sensor_type;location;lat;lon;timestamp;P1;durP1;ratioP1;P2;durP2;ratioP2
76552;SDS011;65395;53.168;18.156;2023-04-19T00:02:09;5.80;;;3.30;;
76552;SDS011;65395;53.168;18.156;2023-04-19T00:04:35;11.40;;;3.90;;
76552;SDS011;65395;53.168;18.156;2023-04-19T00:07:03;6.50;;;3.30;;
76552;SDS011;65395;53.168;18.156;2023-04-19T00:09:30;8.20;;;3.50;;
76552;SDS011;65395;53.168;18.156;2023-04-19T00:11:57;6.60;;;3.10;;
76552;SDS011;65395;53.168;18.156;2023-04-19T00:14:24;7.30;;;3.30;;
76552;SDS011;65395;53.168;18.156;2023-04-19T00:16:50;5.70;;;2.70;;
76552;SDS011;65395;53.168;18.156;2023-04-19T00:19:17;7.00;;;3.50;;
76552;SDS011;65395;53.168;18.156;2023-04-19T00:21:44;7.20;;;2.90;;
76552;SDS011;65395;53.168;18.156;2023-04-19T00:24:10;8.30;;;3.40;;
76552;SDS011;65395;53.168;18.156;2023-04-19T00:26:37;6.80;;;2.90;;
76552;SDS011;65395;53.168;18.156;2023-04-19T00:29:04;7.70;;;3.60;;
76552;SDS011;65395;53.168;18.156;2023-04-19T00:31:32;6.60;;;3.50;;
76552;SDS011;65395;53.168;18.156;2023-04-19T00:33:59;9.80;;;3.70;;
76552;SDS011;65395;53.168;18.156;2023-04-19T00:36:26;10.30;;;3.30;;
76552;SDS011;65395;53.168;18.156;2023-04-19T00:38:53;5.80;;;3.30;;
76552;SDS011;65395;53.168;18.156;2023-04-19T00:41:19;6.60;;;3.00;;
76552;SDS011;65395;53.168;18.156;2023-04-19T00:43:46;6.20;;;2.90;;
76552;SDS011;65395;53.168;18.156;2023-04-19T00:46:13;6.80;;;3.20;;
76552;SDS011;65395;53.168;18.156;2023-04-19T00:48:41;6.50;;;3.40;;
76552;SDS011;65395;53.168;18.156;2023-04-19T00:51:09;7.00;;;3.20;;
76552;SDS011;65395;53.168;18.156;2023-04-19T00:53:37;7.00;;;3.10;;
76552;SDS011;65395;53.168;18.156;2023-04-19T00:56:04;7.80;;;3.30;;
76552;SDS011;65395;53.168;18.156;2023-04-19T00:58:32;6.80;;;3.50;;
76552;SDS011;65395;53.168;18.156;2023-04-19T01:00:58;7.10;;;3.50;;
76552;SDS011;65395;53.168;18.156;2023-04-19T01:03:25;9.60;;;3.50;;
76552;SDS011;65395;53.168;18.156;2023-04-19T01:05:54;4.80;;;3.20;;
76552;SDS011;65395;53.168;18.156;2023-04-19T01:08:22;7.00;;;3.30;;
76552;SDS011;65395;53.168;18.156;2023-04-19T01:10:53;7.10;;;3.20;;
76552;SDS011;65395;53.168;18.156;2023-04-19T01:13:20;9.20;;;3.50;;
76552;SDS011;65395;53.168;18.156;2023-04-19T01:15:48;9.80;;;3.30;;
76552;SDS011;65395;53.168;18.156;2023-04-19T01:18:17;8.40;;;3.40;;
76552;SDS011;65395;53.168;18.156;2023-04-19T01:20:44;8.60;;;3.30;;
76552;SDS011;65395;53.168;18.156;2023-04-19T01:23:11;7.80;;;3.30;;
76552;SDS011;65395;53.168;18.156;2023-04-19T01:25:38;8.10;;;3.40;;
76552;SDS011;65395;53.168;18.156;2023-04-19T01:28:05;8.70;;;3.10;;
76552;SDS011;65395;53.168;18.156;2023-04-19T01:30:31;5.30;;;3.00;;
76552;SDS011;65395;53.168;18.156;2023-04-19T01:33:00;12.70;;;3.90;;
76552;SDS011;65395;53.168;18.156;2023-04-19T01:35:29;8.10;;;3.20;;
76552;SDS011;65395;53.168;18.156;2023-04-19T01:37:56;11.00;;;3.10;;
76552;SDS011;65395;53.168;18.156;2023-04-19T01:40:23;7.10;;;3.30;;
76552;SDS011;65395;53.168;18.156;2023-04-19T01:42:51;11.40;;;3.40;;
76552;SDS011;65395;53.168;18.156;2023-04-19T01:45:18;6.90;;;3.30;;
76552;SDS011;65395;53.168;18.156;2023-04-19T01:47:45;6.80;;;3.40;;
76552;SDS011;65395;53.168;18.156;2023-04-19T01:50:12;5.40;;;3.00;;
76552;SDS011;65395;53.168;18.156;2023-04-19T01:52:39;10.00;;;4.10;;
76552;SDS011;65395;53.168;18.156;2023-04-19T01:55:06;7.80;;;3.40;;
76552;SDS011;65395;53.168;18.156;2023-04-19T01:57:33;6.50;;;3.20;;
76552;SDS011;65395;53.168;18.156;2023-04-19T02:00:00;8.80;;;3.50;;
76552;SDS011;65395;53.168;18.156;2023-04-19T02:02:27;6.80;;;2.90;;
76552;SDS011;65395;53.168;18.156;2023-04-19T02:04:54;8.90;;;3.20;;
76552;SDS011;65395;53.168;18.156;2023-04-19T02:07:23;8.10;;;3.70;;
76552;SDS011;65395;53.168;18.156;2023-04-19T02:09:49;7.40;;;3.60;;
76552;SDS011;65395;53.168;18.156;2023-04-19T02:12:23;8.30;;;3.40;;
76552;SDS011;65395;53.168;18.156;2023-04-19T02:14:50;9.20;;;3.50;;
76552;SDS011;65395;53.168;18.156;2023-04-19T02:17:18;8.20;;;3.60;;
76552;SDS011;65395;53.168;18.156;2023-04-19T02:19:46;7.90;;;3.80;;
76552;SDS011;65395;53.168;18.156;2023-04-19T02:22:13;8.50;;;3.60;;
76552;SDS011;65395;53.168;18.156;2023-04-19T02:24:40;7.60;;;3.60;;
76552;SDS011;65395;53.168;18.156;2023-04-19T02:27:07;9.20;;;3.50;;
76552;SDS011;65395;53.168;18.156;2023-04-19T02:29:34;9.10;;;3.50;;
76552;SDS011;65395;53.168;18.156;2023-04-19T02:32:01;8.50;;;3.70;;
76552;SDS011;65395;53.168;18.156;2023-04-19T02:34:31;7.40;;;3.90;;
76552;SDS011;65395;53.168;18.156;2023-04-19T02:36:59;9.00;;;3.80;;
76552;SDS011;65395;53.168;18.156;2023-04-19T02:39:28;8.00;;;3.60;;
76552;SDS011;65395;53.168;18.156;2023-04-19T02:41:55;9.20;;;3.90;;
76552;SDS011;65395;53.168;18.156;2023-04-19T02:44:23;6.40;;;3.50;;
76552;SDS011;65395;53.168;18.156;2023-04-19T02:46:50;10.00;;;4.40;;
76552;SDS011;65395;53.168;18.156;2023-04-19T02:49:18;9.80;;;3.50;;
76552;SDS011;65395;53.168;18.156;2023-04-19T02:51:46;9.80;;;4.00;;
76552;SDS011;65395;53.168;18.156;2023-04-19T02:54:13;8.30;;;3.50;;
76552;SDS011;65395;53.168;18.156;2023-04-19T02:56:40;9.40;;;3.50;;
76552;SDS011;65395;53.168;18.156;2023-04-19T02:59:07;8.70;;;4.20;;
76552;SDS011;65395;53.168;18.156;2023-04-19T03:01:34;10.30;;;4.00;;
76552;SDS011;65395;53.168;18.156;2023-04-19T03:04:03;9.80;;;3.90;;
76552;SDS011;65395;53.168;18.156;2023-04-19T03:06:30;9.50;;;3.90;;
76552;SDS011;65395;53.168;18.156;2023-04-19T03:08:57;11.40;;;5.30;;
76552;SDS011;65395;53.168;18.156;2023-04-19T03:11:24;12.00;;;4.20;;
76552;SDS011;65395;53.168;18.156;2023-04-19T03:13:53;8.40;;;4.00;;
76552;SDS011;65395;53.168;18.156;2023-04-19T03:16:20;10.30;;;4.20;;
76552;SDS011;65395;53.168;18.156;2023-04-19T03:18:47;14.20;;;4.20;;
76552;SDS011;65395;53.168;18.156;2023-04-19T03:21:14;8.30;;;3.70;;
76552;SDS011;65395;53.168;18.156;2023-04-19T03:23:48;9.70;;;4.30;;
76552;SDS011;65395;53.168;18.156;2023-04-19T03:26:16;11.50;;;4.70;;
76552;SDS011;65395;53.168;18.156;2023-04-19T03:28:45;7.20;;;3.90;;
76552;SDS011;65395;53.168;18.156;2023-04-19T03:31:23;12.40;;;3.90;;
76552;SDS011;65395;53.168;18.156;2023-04-19T03:33:51;10.60;;;4.10;;
76552;SDS011;65395;53.168;18.156;2023-04-19T03:36:20;7.70;;;3.60;;
76552;SDS011;65395;53.168;18.156;2023-04-19T03:38:47;12.00;;;4.00;;
76552;SDS011;65395;53.168;18.156;2023-04-19T03:41:17;6.90;;;3.00;;
76552;SDS011;65395;53.168;18.156;2023-04-19T03:43:46;11.00;;;4.00;;
76552;SDS011;65395;53.168;18.156;2023-04-19T03:46:13;12.10;;;4.30;;
76552;SDS011;65395;53.168;18.156;2023-04-19T03:48:40;10.40;;;4.30;;
76552;SDS011;65395;53.168;18.156;2023-04-19T03:51:07;11.20;;;4.20;;
76552;SDS011;65395;53.168;18.156;2023-04-19T03:53:34;9.00;;;4.00;;
76552;SDS011;65395;53.168;18.156;2023-04-19T03:56:02;7.50;;;4.20;;
76552;SDS011;65395;53.168;18.156;2023-04-19T03:58:29;12.70;;;4.30;;
76552;SDS011;65395;53.168;18.156;2023-04-19T04:01:01;11.20;;;4.90;;
76552;SDS011;65395;53.168;18.156;2023-04-19T04:03:29;9.20;;;4.30;;
76552;SDS011;65395;53.168;18.156;2023-04-19T04:05:56;13.00;;;5.50;;
76552;SDS011;65395;53.168;18.156;2023-04-19T04:08:23;9.10;;;4.50;;
76552;SDS011;65395;53.168;18.156;2023-04-19T04:10:49;7.80;;;4.00;;
76552;SDS011;65395;53.168;18.156;2023-04-19T04:13:16;8.90;;;4.40;;
76552;SDS011;65395;53.168;18.156;2023-04-19T04:15:48;9.40;;;4.20;;
76552;SDS011;65395;53.168;18.156;2023-04-19T04:18:16;10.30;;;4.00;;
76552;SDS011;65395;53.168;18.156;2023-04-19T04:20:43;10.60;;;3.90;;
76552;SDS011;65395;53.168;18.156;2023-04-19T04:23:10;5.30;;;3.60;;
76552;SDS011;65395;53.168;18.156;2023-04-19T04:25:39;12.20;;;4.20;;
76552;SDS011;65395;53.168;18.156;2023-04-19T04:28:10;14.00;;;4.10;;
76552;SDS011;65395;53.168;18.156;2023-04-19T04:30:38;10.60;;;3.70;;
76552;SDS011;65395;53.168;18.156;2023-04-19T04:33:07;12.00;;;4.30;;
76552;SDS011;65395;53.168;18.156;2023-04-19T04:35:34;9.50;;;4.40;;
76552;SDS011;65395;53.168;18.156;2023-04-19T04:38:06;8.60;;;3.90;;
76552;SDS011;65395;53.168;18.156;2023-04-19T04:40:33;9.20;;;4.30;;
76552;SDS011;65395;53.168;18.156;2023-04-19T04:43:00;8.00;;;3.70;;
76552;SDS011;65395;53.168;18.156;2023-04-19T04:45:30;10.60;;;4.70;;
76552;SDS011;65395;53.168;18.156;2023-04-19T04:47:58;10.60;;;4.20;;
76552;SDS011;65395;53.168;18.156;2023-04-19T04:50:24;12.20;;;3.80;;
76552;SDS011;65395;53.168;18.156;2023-04-19T04:52:51;7.70;;;3.50;;
76552;SDS011;65395;53.168;18.156;2023-04-19T04:55:26;12.90;;;3.80;;
76552;SDS011;65395;53.168;18.156;2023-04-19T04:57:53;10.30;;;3.70;;
76552;SDS011;65395;53.168;18.156;2023-04-19T05:00:24;9.40;;;3.30;;
76552;SDS011;65395;53.168;18.156;2023-04-19T05:02:57;8.20;;;3.30;;
76552;SDS011;65395;53.168;18.156;2023-04-19T05:05:25;8.10;;;3.60;;
76552;SDS011;65395;53.168;18.156;2023-04-19T05:07:52;8.60;;;2.90;;
76552;SDS011;65395;53.168;18.156;2023-04-19T05:10:19;8.30;;;3.10;;
76552;SDS011;65395;53.168;18.156;2023-04-19T05:12:46;9.60;;;3.50;;
76552;SDS011;65395;53.168;18.156;2023-04-19T05:15:14;8.10;;;3.30;;
76552;SDS011;65395;53.168;18.156;2023-04-19T05:17:45;8.80;;;3.30;;
76552;SDS011;65395;53.168;18.156;2023-04-19T05:20:12;8.30;;;3.20;;
76552;SDS011;65395;53.168;18.156;2023-04-19T05:22:39;12.10;;;3.60;;
76552;SDS011;65395;53.168;18.156;2023-04-19T05:25:08;9.60;;;3.60;;
76552;SDS011;65395;53.168;18.156;2023-04-19T05:27:36;10.90;;;3.30;;
76552;SDS011;65395;53.168;18.156;2023-04-19T05:30:03;12.30;;;3.80;;
76552;SDS011;65395;53.168;18.156;2023-04-19T05:32:32;8.10;;;3.80;;
76552;SDS011;65395;53.168;18.156;2023-04-19T05:35:01;8.50;;;3.70;;
76552;SDS011;65395;53.168;18.156;2023-04-19T05:37:27;10.20;;;3.40;;
76552;SDS011;65395;53.168;18.156;2023-04-19T05:39:56;8.70;;;3.50;;
76552;SDS011;65395;53.168;18.156;2023-04-19T05:42:24;7.90;;;3.30;;
76552;SDS011;65395;53.168;18.156;2023-04-19T05:44:51;9.10;;;3.40;;
76552;SDS011;65395;53.168;18.156;2023-04-19T05:47:18;6.90;;;3.20;;
76552;SDS011;65395;53.168;18.156;2023-04-19T05:49:55;10.00;;;3.40;;
76552;SDS011;65395;53.168;18.156;2023-04-19T05:52:30;6.40;;;3.10;;
76552;SDS011;65395;53.168;18.156;2023-04-19T05:54:58;10.00;;;3.10;;
76552;SDS011;65395;53.168;18.156;2023-04-19T05:57:26;10.20;;;3.40;;
76552;SDS011;65395;53.168;18.156;2023-04-19T05:59:53;10.90;;;3.40;;
76552;SDS011;65395;53.168;18.156;2023-04-19T06:02:22;9.60;;;3.30;;
76552;SDS011;65395;53.168;18.156;2023-04-19T06:04:49;8.50;;;3.10;;
76552;SDS011;65395;53.168;18.156;2023-04-19T06:07:16;8.80;;;3.30;;
76552;SDS011;65395;53.168;18.156;2023-04-19T06:09:43;9.30;;;3.50;;
76552;SDS011;65395;53.168;18.156;2023-04-19T06:12:10;7.60;;;3.20;;
76552;SDS011;65395;53.168;18.156;2023-04-19T06:14:37;7.80;;;3.40;;
76552;SDS011;65395;53.168;18.156;2023-04-19T06:17:04;9.00;;;3.50;;
76552;SDS011;65395;53.168;18.156;2023-04-19T06:19:30;10.20;;;3.60;;
76552;SDS011;65395;53.168;18.156;2023-04-19T06:21:59;9.90;;;3.70;;
76552;SDS011;65395;53.168;18.156;2023-04-19T06:24:26;10.30;;;3.50;;
76552;SDS011;65395;53.168;18.156;2023-04-19T06:26:53;9.60;;;3.90;;
76552;SDS011;65395;53.168;18.156;2023-04-19T06:29:20;8.40;;;4.00;;
76552;SDS011;65395;53.168;18.156;2023-04-19T06:31:48;9.70;;;3.90;;
76552;SDS011;65395;53.168;18.156;2023-04-19T06:34:15;6.20;;;3.00;;
76552;SDS011;65395;53.168;18.156;2023-04-19T06:36:44;7.30;;;3.60;;
76552;SDS011;65395;53.168;18.156;2023-04-19T06:39:11;6.90;;;3.50;;
76552;SDS011;65395;53.168;18.156;2023-04-19T06:41:38;13.90;;;4.40;;
76552;SDS011;65395;53.168;18.156;2023-04-19T06:44:05;9.10;;;4.10;;
76552;SDS011;65395;53.168;18.156;2023-04-19T06:46:32;9.80;;;4.00;;
76552;SDS011;65395;53.168;18.156;2023-04-19T06:48:59;11.00;;;4.00;;
76552;SDS011;65395;53.168;18.156;2023-04-19T06:51:27;8.00;;;3.90;;
76552;SDS011;65395;53.168;18.156;2023-04-19T06:53:54;9.40;;;4.30;;
76552;SDS011;65395;53.168;18.156;2023-04-19T06:56:37;7.60;;;4.00;;
76552;SDS011;65395;53.168;18.156;2023-04-19T06:59:07;11.90;;;4.20;;
76552;SDS011;65395;53.168;18.156;2023-04-19T07:01:34;9.50;;;4.50;;
76552;SDS011;65395;53.168;18.156;2023-04-19T07:04:01;12.90;;;4.10;;
76552;SDS011;65395;53.168;18.156;2023-04-19T07:06:28;9.20;;;3.70;;
76552;SDS011;65395;53.168;18.156;2023-04-19T07:08:55;10.60;;;4.60;;
76552;SDS011;65395;53.168;18.156;2023-04-19T07:11:21;7.40;;;4.00;;
76552;SDS011;65395;53.168;18.156;2023-04-19T07:13:48;9.20;;;4.20;;
76552;SDS011;65395;53.168;18.156;2023-04-19T07:16:16;11.00;;;5.00;;
76552;SDS011;65395;53.168;18.156;2023-04-19T07:18:44;10.10;;;5.20;;
76552;SDS011;65395;53.168;18.156;2023-04-19T07:21:10;17.20;;;5.20;;
76552;SDS011;65395;53.168;18.156;2023-04-19T07:23:37;14.10;;;5.10;;
76552;SDS011;65395;53.168;18.156;2023-04-19T07:26:04;12.30;;;5.20;;
76552;SDS011;65395;53.168;18.156;2023-04-19T07:28:31;10.00;;;4.60;;
76552;SDS011;65395;53.168;18.156;2023-04-19T07:30:57;9.20;;;4.60;;
76552;SDS011;65395;53.168;18.156;2023-04-19T07:33:26;11.00;;;4.60;;
76552;SDS011;65395;53.168;18.156;2023-04-19T07:35:54;12.20;;;5.00;;
76552;SDS011;65395;53.168;18.156;2023-04-19T07:38:21;7.20;;;4.20;;
76552;SDS011;65395;53.168;18.156;2023-04-19T07:40:50;14.60;;;4.80;;
76552;SDS011;65395;53.168;18.156;2023-04-19T07:43:17;12.60;;;5.40;;
76552;SDS011;65395;53.168;18.156;2023-04-19T07:45:44;8.80;;;4.90;;
76552;SDS011;65395;53.168;18.156;2023-04-19T07:48:11;13.50;;;5.10;;
76552;SDS011;65395;53.168;18.156;2023-04-19T07:50:38;13.60;;;5.60;;
76552;SDS011;65395;53.168;18.156;2023-04-19T07:53:06;13.50;;;5.70;;
76552;SDS011;65395;53.168;18.156;2023-04-19T07:55:32;12.00;;;5.30;;
76552;SDS011;65395;53.168;18.156;2023-04-19T07:58:00;11.90;;;5.20;;
76552;SDS011;65395;53.168;18.156;2023-04-19T08:00:28;10.40;;;4.80;;
76552;SDS011;65395;53.168;18.156;2023-04-19T08:02:56;10.60;;;4.90;;
76552;SDS011;65395;53.168;18.156;2023-04-19T08:05:23;14.40;;;5.40;;
76552;SDS011;65395;53.168;18.156;2023-04-19T08:07:53;10.60;;;5.20;;
76552;SDS011;65395;53.168;18.156;2023-04-19T08:10:22;10.40;;;5.50;;
76552;SDS011;65395;53.168;18.156;2023-04-19T08:12:48;12.00;;;5.80;;
76552;SDS011;65395;53.168;18.156;2023-04-19T08:15:16;10.90;;;5.30;;
76552;SDS011;65395;53.168;18.156;2023-04-19T08:17:43;16.20;;;6.40;;
76552;SDS011;65395;53.168;18.156;2023-04-19T08:20:10;13.80;;;6.40;;
76552;SDS011;65395;53.168;18.156;2023-04-19T08:22:37;13.10;;;6.50;;
76552;SDS011;65395;53.168;18.156;2023-04-19T08:25:06;13.80;;;5.80;;
76552;SDS011;65395;53.168;18.156;2023-04-19T08:27:34;15.80;;;6.00;;
76552;SDS011;65395;53.168;18.156;2023-04-19T08:30:02;12.80;;;5.70;;
76552;SDS011;65395;53.168;18.156;2023-04-19T08:32:29;13.50;;;6.70;;
76552;SDS011;65395;53.168;18.156;2023-04-19T08:34:56;14.50;;;7.40;;
76552;SDS011;65395;53.168;18.156;2023-04-19T08:37:23;10.20;;;5.60;;
76552;SDS011;65395;53.168;18.156;2023-04-19T08:39:50;10.40;;;5.90;;
76552;SDS011;65395;53.168;18.156;2023-04-19T08:42:17;12.20;;;5.10;;
76552;SDS011;65395;53.168;18.156;2023-04-19T08:44:45;9.30;;;5.40;;
76552;SDS011;65395;53.168;18.156;2023-04-19T08:47:15;11.70;;;5.40;;
76552;SDS011;65395;53.168;18.156;2023-04-19T08:49:42;8.60;;;4.80;;
76552;SDS011;65395;53.168;18.156;2023-04-19T08:52:11;8.00;;;4.80;;
76552;SDS011;65395;53.168;18.156;2023-04-19T08:54:40;10.60;;;4.60;;
76552;SDS011;65395;53.168;18.156;2023-04-19T08:57:07;11.80;;;5.10;;
76552;SDS011;65395;53.168;18.156;2023-04-19T08:59:34;13.50;;;7.00;;
76552;SDS011;65395;53.168;18.156;2023-04-19T09:02:01;10.30;;;5.20;;
76552;SDS011;65395;53.168;18.156;2023-04-19T09:04:28;9.80;;;5.20;;
76552;SDS011;65395;53.168;18.156;2023-04-19T09:06:55;10.10;;;5.20;;
76552;SDS011;65395;53.168;18.156;2023-04-19T09:09:23;12.30;;;5.30;;
76552;SDS011;65395;53.168;18.156;2023-04-19T09:11:51;9.70;;;4.70;;
76552;SDS011;65395;53.168;18.156;2023-04-19T09:14:19;8.40;;;4.40;;
76552;SDS011;65395;53.168;18.156;2023-04-19T09:16:49;13.30;;;4.90;;
76552;SDS011;65395;53.168;18.156;2023-04-19T09:19:17;10.60;;;5.10;;
76552;SDS011;65395;53.168;18.156;2023-04-19T09:21:44;9.10;;;4.30;;
76552;SDS011;65395;53.168;18.156;2023-04-19T09:24:12;9.80;;;4.20;;
76552;SDS011;65395;53.168;18.156;2023-04-19T09:26:38;10.40;;;5.20;;
76552;SDS011;65395;53.168;18.156;2023-04-19T09:29:18;9.40;;;4.60;;
76552;SDS011;65395;53.168;18.156;2023-04-19T09:31:55;7.30;;;4.40;;
76552;SDS011;65395;53.168;18.156;2023-04-19T09:34:24;9.60;;;4.80;;
76552;SDS011;65395;53.168;18.156;2023-04-19T09:36:53;8.40;;;4.50;;
76552;SDS011;65395;53.168;18.156;2023-04-19T09:39:29;9.20;;;4.20;;
76552;SDS011;65395;53.168;18.156;2023-04-19T09:41:58;10.10;;;4.50;;
76552;SDS011;65395;53.168;18.156;2023-04-19T09:44:25;10.60;;;5.20;;
76552;SDS011;65395;53.168;18.156;2023-04-19T09:46:52;10.10;;;5.00;;
76552;SDS011;65395;53.168;18.156;2023-04-19T09:49:21;8.90;;;5.00;;
76552;SDS011;65395;53.168;18.156;2023-04-19T09:51:50;10.40;;;5.10;;
76552;SDS011;65395;53.168;18.156;2023-04-19T09:54:19;9.70;;;4.80;;
76552;SDS011;65395;53.168;18.156;2023-04-19T09:56:48;11.00;;;5.10;;
76552;SDS011;65395;53.168;18.156;2023-04-19T09:59:15;11.70;;;5.30;;
76552;SDS011;65395;53.168;18.156;2023-04-19T10:01:43;9.80;;;5.80;;
76552;SDS011;65395;53.168;18.156;2023-04-19T10:04:12;9.70;;;6.00;;
76552;SDS011;65395;53.168;18.156;2023-04-19T10:06:47;9.00;;;5.20;;
76552;SDS011;65395;53.168;18.156;2023-04-19T10:09:17;13.20;;;5.20;;
76552;SDS011;65395;53.168;18.156;2023-04-19T10:11:47;9.30;;;5.60;;
76552;SDS011;65395;53.168;18.156;2023-04-19T10:14:16;8.90;;;5.10;;
76552;SDS011;65395;53.168;18.156;2023-04-19T10:16:47;10.10;;;5.20;;
76552;SDS011;65395;53.168;18.156;2023-04-19T10:19:16;9.70;;;5.40;;
76552;SDS011;65395;53.168;18.156;2023-04-19T10:21:46;11.30;;;5.20;;
76552;SDS011;65395;53.168;18.156;2023-04-19T10:24:14;11.10;;;5.40;;
76552;SDS011;65395;53.168;18.156;2023-04-19T10:32:17;10.20;;;5.10;;
76552;SDS011;65395;53.168;18.156;2023-04-19T10:34:44;9.00;;;5.20;;
76552;SDS011;65395;53.168;18.156;2023-04-19T10:37:12;13.00;;;5.60;;
76552;SDS011;65395;53.168;18.156;2023-04-19T10:39:40;8.70;;;5.60;;
76552;SDS011;65395;53.168;18.156;2023-04-19T10:42:08;11.00;;;5.40;;
76552;SDS011;65395;53.168;18.156;2023-04-19T10:44:35;9.70;;;5.10;;
76552;SDS011;65395;53.168;18.156;2023-04-19T10:47:01;8.90;;;5.10;;
76552;SDS011;65395;53.168;18.156;2023-04-19T10:49:31;9.60;;;5.60;;
76552;SDS011;65395;53.168;18.156;2023-04-19T10:54:55;9.30;;;5.20;;
76552;SDS011;65395;53.168;18.156;2023-04-19T10:57:22;8.90;;;5.40;;
76552;SDS011;65395;53.168;18.156;2023-04-19T11:02:37;8.60;;;4.90;;
76552;SDS011;65395;53.168;18.156;2023-04-19T11:05:07;9.20;;;5.30;;
76552;SDS011;65395;53.168;18.156;2023-04-19T11:07:35;8.80;;;5.40;;
76552;SDS011;65395;53.168;18.156;2023-04-19T11:10:03;10.00;;;5.30;;
76552;SDS011;65395;53.168;18.156;2023-04-19T11:12:31;7.40;;;5.10;;
76552;SDS011;65395;53.168;18.156;2023-04-19T11:14:59;9.00;;;5.60;;
76552;SDS011;65395;53.168;18.156;2023-04-19T11:17:28;8.00;;;4.90;;
76552;SDS011;65395;53.168;18.156;2023-04-19T11:20:01;9.00;;;4.80;;
76552;SDS011;65395;53.168;18.156;2023-04-19T11:22:34;7.40;;;4.40;;
76552;SDS011;65395;53.168;18.156;2023-04-19T11:25:04;6.80;;;4.90;;
76552;SDS011;65395;53.168;18.156;2023-04-19T11:27:36;9.50;;;4.70;;
76552;SDS011;65395;53.168;18.156;2023-04-19T11:30:05;7.20;;;4.50;;
76552;SDS011;65395;53.168;18.156;2023-04-19T11:32:34;6.40;;;4.00;;
76552;SDS011;65395;53.168;18.156;2023-04-19T11:35:04;5.30;;;4.00;;
76552;SDS011;65395;53.168;18.156;2023-04-19T11:37:33;8.10;;;4.20;;
76552;SDS011;65395;53.168;18.156;2023-04-19T11:40:01;6.10;;;4.30;;
76552;SDS011;65395;53.168;18.156;2023-04-19T11:42:30;6.30;;;4.00;;
76552;SDS011;65395;53.168;18.156;2023-04-19T11:44:57;7.60;;;4.40;;
76552;SDS011;65395;53.168;18.156;2023-04-19T11:47:25;8.50;;;5.10;;
76552;SDS011;65395;53.168;18.156;2023-04-19T11:49:54;6.00;;;4.20;;
76552;SDS011;65395;53.168;18.156;2023-04-19T11:52:22;7.20;;;4.60;;
76552;SDS011;65395;53.168;18.156;2023-04-19T11:54:51;6.50;;;4.30;;
76552;SDS011;65395;53.168;18.156;2023-04-19T11:57:27;7.10;;;3.90;;
76552;SDS011;65395;53.168;18.156;2023-04-19T12:02:38;8.10;;;3.70;;
76552;SDS011;65395;53.168;18.156;2023-04-19T12:05:12;5.60;;;3.40;;
76552;SDS011;65395;53.168;18.156;2023-04-19T12:10:27;5.30;;;3.60;;
76552;SDS011;65395;53.168;18.156;2023-04-19T12:12:54;4.70;;;3.40;;
76552;SDS011;65395;53.168;18.156;2023-04-19T12:15:21;5.40;;;3.60;;
76552;SDS011;65395;53.168;18.156;2023-04-19T12:17:55;6.00;;;4.00;;
76552;SDS011;65395;53.168;18.156;2023-04-19T12:20:30;5.80;;;4.00;;
76552;SDS011;65395;53.168;18.156;2023-04-19T12:22:58;8.50;;;4.30;;
76552;SDS011;65395;53.168;18.156;2023-04-19T12:25:27;5.80;;;4.20;;
76552;SDS011;65395;53.168;18.156;2023-04-19T12:27:56;7.90;;;4.90;;
76552;SDS011;65395;53.168;18.156;2023-04-19T12:30:23;6.70;;;4.60;;
76552;SDS011;65395;53.168;18.156;2023-04-19T12:32:51;6.20;;;4.80;;
76552;SDS011;65395;53.168;18.156;2023-04-19T12:35:21;10.30;;;6.60;;
76552;SDS011;65395;53.168;18.156;2023-04-19T12:37:48;7.80;;;5.00;;
76552;SDS011;65395;53.168;18.156;2023-04-19T12:40:31;7.00;;;4.80;;
76552;SDS011;65395;53.168;18.156;2023-04-19T12:42:57;6.70;;;5.10;;
76552;SDS011;65395;53.168;18.156;2023-04-19T12:45:24;7.10;;;5.40;;
76552;SDS011;65395;53.168;18.156;2023-04-19T12:47:52;6.90;;;4.50;;
76552;SDS011;65395;53.168;18.156;2023-04-19T12:50:18;8.40;;;5.60;;
76552;SDS011;65395;53.168;18.156;2023-04-19T12:52:48;8.10;;;5.30;;
76552;SDS011;65395;53.168;18.156;2023-04-19T12:55:16;8.10;;;5.30;;
76552;SDS011;65395;53.168;18.156;2023-04-19T12:57:43;8.00;;;5.40;;
76552;SDS011;65395;53.168;18.156;2023-04-19T13:00:10;9.80;;;5.20;;
76552;SDS011;65395;53.168;18.156;2023-04-19T13:02:37;8.20;;;5.40;;
76552;SDS011;65395;53.168;18.156;2023-04-19T13:05:05;8.70;;;5.30;;
76552;SDS011;65395;53.168;18.156;2023-04-19T13:07:32;8.00;;;5.50;;
76552;SDS011;65395;53.168;18.156;2023-04-19T13:09:59;9.00;;;6.00;;
76552;SDS011;65395;53.168;18.156;2023-04-19T13:12:27;10.70;;;5.60;;
76552;SDS011;65395;53.168;18.156;2023-04-19T13:14:54;7.90;;;5.50;;
76552;SDS011;65395;53.168;18.156;2023-04-19T13:17:21;7.80;;;5.30;;
76552;SDS011;65395;53.168;18.156;2023-04-19T13:19:48;9.60;;;6.10;;
76552;SDS011;65395;53.168;18.156;2023-04-19T13:22:16;8.10;;;5.90;;
76552;SDS011;65395;53.168;18.156;2023-04-19T13:24:43;9.10;;;6.30;;
76552;SDS011;65395;53.168;18.156;2023-04-19T13:27:10;9.70;;;6.10;;
76552;SDS011;65395;53.168;18.156;2023-04-19T13:29:36;9.20;;;6.00;;
76552;SDS011;65395;53.168;18.156;2023-04-19T13:32:03;10.50;;;6.40;;
76552;SDS011;65395;53.168;18.156;2023-04-19T13:34:37;11.20;;;6.60;;
76552;SDS011;65395;53.168;18.156;2023-04-19T13:37:06;11.70;;;7.30;;
76552;SDS011;65395;53.168;18.156;2023-04-19T13:39:33;14.20;;;7.60;;
76552;SDS011;65395;53.168;18.156;2023-04-19T13:42:00;16.50;;;8.40;;
76552;SDS011;65395;53.168;18.156;2023-04-19T13:44:27;12.50;;;8.10;;
76552;SDS011;65395;53.168;18.156;2023-04-19T13:46:54;11.50;;;7.40;;
76552;SDS011;65395;53.168;18.156;2023-04-19T13:49:21;11.70;;;6.80;;
76552;SDS011;65395;53.168;18.156;2023-04-19T13:51:48;11.10;;;7.00;;
76552;SDS011;65395;53.168;18.156;2023-04-19T13:54:16;11.30;;;7.40;;
76552;SDS011;65395;53.168;18.156;2023-04-19T13:56:43;10.40;;;7.30;;
76552;SDS011;65395;53.168;18.156;2023-04-19T13:59:10;9.30;;;7.10;;
76552;SDS011;65395;53.168;18.156;2023-04-19T14:01:38;9.90;;;7.10;;
76552;SDS011;65395;53.168;18.156;2023-04-19T14:04:05;15.30;;;8.00;;
76552;SDS011;65395;53.168;18.156;2023-04-19T14:06:31;9.70;;;6.60;;
76552;SDS011;65395;53.168;18.156;2023-04-19T14:08:58;8.40;;;6.50;;
76552;SDS011;65395;53.168;18.156;2023-04-19T14:11:26;8.90;;;6.70;;
76552;SDS011;65395;53.168;18.156;2023-04-19T14:13:55;9.90;;;6.50;;
76552;SDS011;65395;53.168;18.156;2023-04-19T14:16:22;8.60;;;6.50;;
76552;SDS011;65395;53.168;18.156;2023-04-19T14:18:50;12.70;;;8.40;;
76552;SDS011;65395;53.168;18.156;2023-04-19T14:21:17;15.30;;;8.50;;
76552;SDS011;65395;53.168;18.156;2023-04-19T14:23:44;12.00;;;7.80;;
76552;SDS011;65395;53.168;18.156;2023-04-19T14:26:11;9.30;;;6.30;;
76552;SDS011;65395;53.168;18.156;2023-04-19T14:28:38;9.90;;;6.90;;
76552;SDS011;65395;53.168;18.156;2023-04-19T14:31:04;7.90;;;6.20;;
76552;SDS011;65395;53.168;18.156;2023-04-19T14:33:31;12.30;;;7.50;;
76552;SDS011;65395;53.168;18.156;2023-04-19T14:35:58;8.00;;;6.50;;
76552;SDS011;65395;53.168;18.156;2023-04-19T14:38:26;11.30;;;6.30;;
76552;SDS011;65395;53.168;18.156;2023-04-19T14:40:53;7.80;;;6.00;;
76552;SDS011;65395;53.168;18.156;2023-04-19T14:43:19;8.20;;;6.40;;
76552;SDS011;65395;53.168;18.156;2023-04-19T14:45:47;9.20;;;6.00;;
76552;SDS011;65395;53.168;18.156;2023-04-19T14:48:14;8.50;;;5.70;;
76552;SDS011;65395;53.168;18.156;2023-04-19T14:50:41;8.20;;;5.60;;
76552;SDS011;65395;53.168;18.156;2023-04-19T14:53:08;7.80;;;5.50;;